sensor_id;sensor_type;location;lat;lon;timestamp;temperature;humidity
13251;DHT22;6692;50.710;7.180;2022-09-20T00:01:08;12.40;99.90
13251;DHT22;6692;50.710;7.180;2022-09-20T00:03:08;12.40;99.90
13251;DHT22;6692;50.710;7.180;2022-09-20T00:05:09;12.50;99.90
13251;DHT22;6692;50.710;7.180;2022-09-20T00:07:09;12.40;99.90
13251;DHT22;6692;50.710;7.180;2022-09-20T00:09:10;12.50;99.90
13251;DHT22;6692;50.710;7.180;2022-09-20T00:11:14;12.50;99.90
13251;DHT22;6692;50.710;7.180;2022-09-20T00:13:14;12.40;99.90
13251;DHT22;6692;50.710;7.180;2022-09-20T00:15:16;12.50;99.90
13251;DHT22;6692;50.710;7.180;2022-09-20T00:17:16;12.50;99.90
13251;DHT22;6692;50.710;7.180;2022-09-20T00:19:17;12.50;99.90
13251;DHT22;6692;50.710;7.180;2022-09-20T00:21:18;12.50;99.90
13251;DHT22;6692;50.710;7.180;2022-09-20T00:23:18;12.50;99.90
13251;DHT22;6692;50.710;7.180;2022-09-20T00:25:19;12.50;99.90
13251;DHT22;6692;50.710;7.180;2022-09-20T00:27:20;12.60;99.90
13251;DHT22;6692;50.710;7.180;2022-09-20T00:29:21;12.60;99.90
13251;DHT22;6692;50.710;7.180;2022-09-20T00:31:23;12.40;99.90
13251;DHT22;6692;50.710;7.180;2022-09-20T00:33:23;12.50;99.90
13251;DHT22;6692;50.710;7.180;2022-09-20T00:35:23;12.50;99.90
13251;DHT22;6692;50.710;7.180;2022-09-20T00:37:25;12.40;99.90
13251;DHT22;6692;50.710;7.180;2022-09-20T00:39:26;12.40;99.90
13251;DHT22;6692;50.710;7.180;2022-09-20T00:41:27;12.30;99.90
13251;DHT22;6692;50.710;7.180;2022-09-20T00:43:36;12.30;99.90
13251;DHT22;6692;50.710;7.180;2022-09-20T00:45:35;12.20;99.90
13251;DHT22;6692;50.710;7.180;2022-09-20T00:47:38;12.20;99.90
13251;DHT22;6692;50.710;7.180;2022-09-20T00:49:39;12.10;99.90
13251;DHT22;6692;50.710;7.180;2022-09-20T00:51:42;12.10;99.90
13251;DHT22;6692;50.710;7.180;2022-09-20T00:53:43;12.10;99.90
13251;DHT22;6692;50.710;7.180;2022-09-20T00:55:42;12.10;99.90
13251;DHT22;6692;50.710;7.180;2022-09-20T00:57:42;12.10;99.90
13251;DHT22;6692;50.710;7.180;2022-09-20T00:59:44;12.00;99.90
13251;DHT22;6692;50.710;7.180;2022-09-20T01:01:45;12.00;99.90
13251;DHT22;6692;50.710;7.180;2022-09-20T01:03:46;12.00;99.90
13251;DHT22;6692;50.710;7.180;2022-09-20T01:05:46;11.90;99.90
13251;DHT22;6692;50.710;7.180;2022-09-20T01:07:47;11.90;99.90
13251;DHT22;6692;50.710;7.180;2022-09-20T01:09:48;11.90;99.90
13251;DHT22;6692;50.710;7.180;2022-09-20T01:11:49;11.90;99.90
13251;DHT22;6692;50.710;7.180;2022-09-20T01:13:49;11.90;99.90
13251;DHT22;6692;50.710;7.180;2022-09-20T01:15:50;11.90;99.90
13251;DHT22;6692;50.710;7.180;2022-09-20T01:17:51;11.90;99.90
13251;DHT22;6692;50.710;7.180;2022-09-20T01:20:02;11.90;99.90
13251;DHT22;6692;50.710;7.180;2022-09-20T01:21:59;11.90;99.90
13251;DHT22;6692;50.710;7.180;2022-09-20T01:26:28;12.00;99.90
13251;DHT22;6692;50.710;7.180;2022-09-20T01:28:28;12.00;99.90
13251;DHT22;6692;50.710;7.180;2022-09-20T01:30:34;12.00;99.90
13251;DHT22;6692;50.710;7.180;2022-09-20T01:32:38;12.00;99.90
13251;DHT22;6692;50.710;7.180;2022-09-20T01:34:35;12.10;99.90
13251;DHT22;6692;50.710;7.180;2022-09-20T01:36:37;12.10;99.90
13251;DHT22;6692;50.710;7.180;2022-09-20T01:38:42;12.10;99.90
13251;DHT22;6692;50.710;7.180;2022-09-20T01:40:46;12.10;99.90
13251;DHT22;6692;50.710;7.180;2022-09-20T01:42:45;12.10;99.90
13251;DHT22;6692;50.710;7.180;2022-09-20T01:45:26;12.10;99.90
13251;DHT22;6692;50.710;7.180;2022-09-20T01:47:10;12.10;99.90
13251;DHT22;6692;50.710;7.180;2022-09-20T01:51:47;12.00;99.90
13251;DHT22;6692;50.710;7.180;2022-09-20T01:58:28;11.90;99.90
13251;DHT22;6692;50.710;7.180;2022-09-20T02:00:25;11.80;99.90
13251;DHT22;6692;50.710;7.180;2022-09-20T02:04:57;11.70;99.90
13251;DHT22;6692;50.710;7.180;2022-09-20T02:07:02;11.80;99.90
13251;DHT22;6692;50.710;7.180;2022-09-20T02:09:24;11.70;99.90
13251;DHT22;6692;50.710;7.180;2022-09-20T02:11:28;11.70;99.90
13251;DHT22;6692;50.710;7.180;2022-09-20T02:16:01;11.80;99.90
13251;DHT22;6692;50.710;7.180;2022-09-20T02:20:49;11.70;99.90
13251;DHT22;6692;50.710;7.180;2022-09-20T02:23:04;11.80;99.90
13251;DHT22;6692;50.710;7.180;2022-09-20T02:25:11;11.80;99.90
13251;DHT22;6692;50.710;7.180;2022-09-20T02:27:25;11.80;99.90
13251;DHT22;6692;50.710;7.180;2022-09-20T02:29:31;11.80;99.90
13251;DHT22;6692;50.710;7.180;2022-09-20T02:31:41;11.90;99.90
13251;DHT22;6692;50.710;7.180;2022-09-20T02:33:59;11.90;99.90
13251;DHT22;6692;50.710;7.180;2022-09-20T02:40:42;11.80;99.90
13251;DHT22;6692;50.710;7.180;2022-09-20T02:42:45;11.80;99.90
13251;DHT22;6692;50.710;7.180;2022-09-20T02:44:51;11.80;99.90
13251;DHT22;6692;50.710;7.180;2022-09-20T02:46:53;11.80;99.90
13251;DHT22;6692;50.710;7.180;2022-09-20T02:48:56;11.70;99.90
13251;DHT22;6692;50.710;7.180;2022-09-20T02:51:00;11.80;99.90
13251;DHT22;6692;50.710;7.180;2022-09-20T02:55:33;11.70;99.90
13251;DHT22;6692;50.710;7.180;2022-09-20T02:57:41;11.70;99.90
13251;DHT22;6692;50.710;7.180;2022-09-20T02:59:42;11.70;99.90
13251;DHT22;6692;50.710;7.180;2022-09-20T03:01:49;11.70;99.90
13251;DHT22;6692;50.710;7.180;2022-09-20T03:03:52;11.70;99.90
13251;DHT22;6692;50.710;7.180;2022-09-20T03:05:58;11.70;99.90
13251;DHT22;6692;50.710;7.180;2022-09-20T03:08:01;11.70;99.90
13251;DHT22;6692;50.710;7.180;2022-09-20T03:12:18;11.70;99.90
13251;DHT22;6692;50.710;7.180;2022-09-20T03:14:22;11.60;99.90
13251;DHT22;6692;50.710;7.180;2022-09-20T03:16:44;11.70;99.90
13251;DHT22;6692;50.710;7.180;2022-09-20T03:18:56;11.70;99.90
13251;DHT22;6692;50.710;7.180;2022-09-20T03:20:58;11.70;99.90
13251;DHT22;6692;50.710;7.180;2022-09-20T03:25:22;11.80;99.90
13251;DHT22;6692;50.710;7.180;2022-09-20T03:27:20;11.80;99.90
13251;DHT22;6692;50.710;7.180;2022-09-20T03:29:41;11.90;99.90
13251;DHT22;6692;50.710;7.180;2022-09-20T03:31:48;11.90;99.90
13251;DHT22;6692;50.710;7.180;2022-09-20T03:34:25;12.00;99.90
13251;DHT22;6692;50.710;7.180;2022-09-20T03:36:15;12.10;99.90
13251;DHT22;6692;50.710;7.180;2022-09-20T03:38:30;12.00;99.90
13251;DHT22;6692;50.710;7.180;2022-09-20T03:40:40;12.00;99.90
13251;DHT22;6692;50.710;7.180;2022-09-20T03:42:35;12.00;99.90
13251;DHT22;6692;50.710;7.180;2022-09-20T03:44:49;12.00;99.90
13251;DHT22;6692;50.710;7.180;2022-09-20T03:46:46;11.90;99.90
13251;DHT22;6692;50.710;7.180;2022-09-20T03:49:30;11.90;99.90
13251;DHT22;6692;50.710;7.180;2022-09-20T03:51:17;11.80;99.90
13251;DHT22;6692;50.710;7.180;2022-09-20T03:53:30;11.80;99.90
13251;DHT22;6692;50.710;7.180;2022-09-20T03:55:45;11.80;99.90
13251;DHT22;6692;50.710;7.180;2022-09-20T03:57:50;11.80;99.90
13251;DHT22;6692;50.710;7.180;2022-09-20T04:02:07;11.80;99.90
13251;DHT22;6692;50.710;7.180;2022-09-20T04:04:22;11.90;99.90
13251;DHT22;6692;50.710;7.180;2022-09-20T04:06:28;11.90;99.90
13251;DHT22;6692;50.710;7.180;2022-09-20T04:08:55;12.00;99.90
13251;DHT22;6692;50.710;7.180;2022-09-20T04:11:02;12.00;99.90
13251;DHT22;6692;50.710;7.180;2022-09-20T04:13:15;12.00;99.90
13251;DHT22;6692;50.710;7.180;2022-09-20T04:15:17;12.10;99.90
13251;DHT22;6692;50.710;7.180;2022-09-20T04:17:23;12.20;99.90
13251;DHT22;6692;50.710;7.180;2022-09-20T04:19:39;12.10;99.90
13251;DHT22;6692;50.710;7.180;2022-09-20T04:21:48;12.20;99.90
13251;DHT22;6692;50.710;7.180;2022-09-20T04:23:57;12.20;99.90
13251;DHT22;6692;50.710;7.180;2022-09-20T04:25:54;12.20;99.90
13251;DHT22;6692;50.710;7.180;2022-09-20T04:27:57;12.30;99.90
13251;DHT22;6692;50.710;7.180;2022-09-20T04:30:02;12.30;99.90
13251;DHT22;6692;50.710;7.180;2022-09-20T04:32:05;12.30;99.90
13251;DHT22;6692;50.710;7.180;2022-09-20T04:34:03;12.20;99.90
13251;DHT22;6692;50.710;7.180;2022-09-20T04:38:28;12.20;99.90
13251;DHT22;6692;50.710;7.180;2022-09-20T04:40:36;12.20;99.90
13251;DHT22;6692;50.710;7.180;2022-09-20T04:44:52;12.20;99.90
13251;DHT22;6692;50.710;7.180;2022-09-20T04:49:45;12.20;99.90
13251;DHT22;6692;50.710;7.180;2022-09-20T04:51:52;12.20;99.90
13251;DHT22;6692;50.710;7.180;2022-09-20T04:56:16;12.20;99.90
13251;DHT22;6692;50.710;7.180;2022-09-20T05:00:25;12.20;99.90
13251;DHT22;6692;50.710;7.180;2022-09-20T05:06:56;12.20;99.90
13251;DHT22;6692;50.710;7.180;2022-09-20T05:09:16;12.20;99.90
13251;DHT22;6692;50.710;7.180;2022-09-20T05:11:38;12.20;99.90
13251;DHT22;6692;50.710;7.180;2022-09-20T05:15:54;12.10;99.90
13251;DHT22;6692;50.710;7.180;2022-09-20T05:17:57;12.10;99.90
13251;DHT22;6692;50.710;7.180;2022-09-20T05:20:02;12.20;99.90
13251;DHT22;6692;50.710;7.180;2022-09-20T05:26:43;12.10;99.90
13251;DHT22;6692;50.710;7.180;2022-09-20T05:28:52;12.20;99.90
13251;DHT22;6692;50.710;7.180;2022-09-20T05:30:51;12.20;99.90
13251;DHT22;6692;50.710;7.180;2022-09-20T05:33:01;12.20;99.90
13251;DHT22;6692;50.710;7.180;2022-09-20T05:35:17;12.30;99.90
13251;DHT22;6692;50.710;7.180;2022-09-20T05:37:29;12.30;99.90
13251;DHT22;6692;50.710;7.180;2022-09-20T05:39:47;12.30;99.90
13251;DHT22;6692;50.710;7.180;2022-09-20T05:41:50;12.30;99.90
13251;DHT22;6692;50.710;7.180;2022-09-20T05:43:58;12.30;99.90
13251;DHT22;6692;50.710;7.180;2022-09-20T05:46:09;12.30;99.90
13251;DHT22;6692;50.710;7.180;2022-09-20T05:48:10;12.40;99.90
13251;DHT22;6692;50.710;7.180;2022-09-20T05:50:31;12.40;99.90
13251;DHT22;6692;50.710;7.180;2022-09-20T05:52:46;12.40;99.90
13251;DHT22;6692;50.710;7.180;2022-09-20T05:54:52;12.40;99.90
13251;DHT22;6692;50.710;7.180;2022-09-20T05:57:02;12.50;99.90
13251;DHT22;6692;50.710;7.180;2022-09-20T05:59:06;12.50;99.90
13251;DHT22;6692;50.710;7.180;2022-09-20T06:01:10;12.50;99.90
13251;DHT22;6692;50.710;7.180;2022-09-20T06:03:13;12.60;99.90
13251;DHT22;6692;50.710;7.180;2022-09-20T06:05:31;12.60;99.90
13251;DHT22;6692;50.710;7.180;2022-09-20T06:10:13;12.60;99.90
13251;DHT22;6692;50.710;7.180;2022-09-20T06:12:20;12.70;99.90
13251;DHT22;6692;50.710;7.180;2022-09-20T06:16:45;12.70;99.90
13251;DHT22;6692;50.710;7.180;2022-09-20T06:18:45;12.70;99.90
13251;DHT22;6692;50.710;7.180;2022-09-20T06:20:50;12.70;99.90
13251;DHT22;6692;50.710;7.180;2022-09-20T06:22:52;12.70;99.90
13251;DHT22;6692;50.710;7.180;2022-09-20T06:25:15;12.70;99.90
13251;DHT22;6692;50.710;7.180;2022-09-20T06:27:22;12.70;99.90
13251;DHT22;6692;50.710;7.180;2022-09-20T06:29:25;12.70;99.90
13251;DHT22;6692;50.710;7.180;2022-09-20T06:31:22;12.80;99.90
13251;DHT22;6692;50.710;7.180;2022-09-20T06:33:23;12.80;99.90
13251;DHT22;6692;50.710;7.180;2022-09-20T06:35:25;12.90;99.90
13251;DHT22;6692;50.710;7.180;2022-09-20T06:37:31;12.90;99.90
13251;DHT22;6692;50.710;7.180;2022-09-20T06:39:53;12.90;99.90
13251;DHT22;6692;50.710;7.180;2022-09-20T06:41:57;12.90;99.90
13251;DHT22;6692;50.710;7.180;2022-09-20T06:43:58;12.90;99.90
13251;DHT22;6692;50.710;7.180;2022-09-20T06:45:58;12.90;99.90
13251;DHT22;6692;50.710;7.180;2022-09-20T06:47:59;12.90;99.90
13251;DHT22;6692;50.710;7.180;2022-09-20T06:50:00;13.00;99.90
13251;DHT22;6692;50.710;7.180;2022-09-20T06:52:03;13.00;99.90
13251;DHT22;6692;50.710;7.180;2022-09-20T06:54:03;13.00;99.90
13251;DHT22;6692;50.710;7.180;2022-09-20T06:56:03;13.00;99.90
13251;DHT22;6692;50.710;7.180;2022-09-20T06:58:04;13.00;99.90
13251;DHT22;6692;50.710;7.180;2022-09-20T07:00:06;13.10;99.90
13251;DHT22;6692;50.710;7.180;2022-09-20T07:02:07;13.10;99.90
13251;DHT22;6692;50.710;7.180;2022-09-20T07:04:07;13.10;99.90
13251;DHT22;6692;50.710;7.180;2022-09-20T07:06:09;13.10;99.90
13251;DHT22;6692;50.710;7.180;2022-09-20T07:08:09;13.20;99.90
13251;DHT22;6692;50.710;7.180;2022-09-20T07:10:10;13.10;99.90
13251;DHT22;6692;50.710;7.180;2022-09-20T07:12:11;13.10;99.90
13251;DHT22;6692;50.710;7.180;2022-09-20T07:14:11;13.10;99.90
13251;DHT22;6692;50.710;7.180;2022-09-20T07:16:12;13.20;99.90
13251;DHT22;6692;50.710;7.180;2022-09-20T07:18:13;13.20;99.90
13251;DHT22;6692;50.710;7.180;2022-09-20T07:20:14;13.10;99.90
13251;DHT22;6692;50.710;7.180;2022-09-20T07:22:15;13.20;99.90
13251;DHT22;6692;50.710;7.180;2022-09-20T07:24:16;13.30;99.90
13251;DHT22;6692;50.710;7.180;2022-09-20T07:26:18;13.30;99.90
13251;DHT22;6692;50.710;7.180;2022-09-20T07:28:17;13.30;99.90
13251;DHT22;6692;50.710;7.180;2022-09-20T07:30:19;13.20;99.90
13251;DHT22;6692;50.710;7.180;2022-09-20T07:32:19;13.30;99.90
13251;DHT22;6692;50.710;7.180;2022-09-20T07:34:20;13.30;99.90
13251;DHT22;6692;50.710;7.180;2022-09-20T07:36:21;13.30;99.90
13251;DHT22;6692;50.710;7.180;2022-09-20T07:38:21;13.40;99.90
13251;DHT22;6692;50.710;7.180;2022-09-20T07:40:22;13.40;99.90
13251;DHT22;6692;50.710;7.180;2022-09-20T07:42:23;13.50;99.90
13251;DHT22;6692;50.710;7.180;2022-09-20T07:44:24;13.50;99.90
13251;DHT22;6692;50.710;7.180;2022-09-20T07:46:25;13.60;99.90
13251;DHT22;6692;50.710;7.180;2022-09-20T07:48:26;13.60;99.90
13251;DHT22;6692;50.710;7.180;2022-09-20T07:50:26;13.60;99.90
13251;DHT22;6692;50.710;7.180;2022-09-20T07:52:26;13.60;99.90
13251;DHT22;6692;50.710;7.180;2022-09-20T07:54:27;13.70;99.90
13251;DHT22;6692;50.710;7.180;2022-09-20T07:56:28;13.80;99.90
13251;DHT22;6692;50.710;7.180;2022-09-20T07:58:31;13.90;99.90
13251;DHT22;6692;50.710;7.180;2022-09-20T08:00:30;13.80;99.90
13251;DHT22;6692;50.710;7.180;2022-09-20T08:02:30;13.80;99.90
13251;DHT22;6692;50.710;7.180;2022-09-20T08:04:31;13.80;99.90
13251;DHT22;6692;50.710;7.180;2022-09-20T08:06:34;13.80;99.90
13251;DHT22;6692;50.710;7.180;2022-09-20T08:08:34;13.80;99.90
13251;DHT22;6692;50.710;7.180;2022-09-20T08:10:34;13.80;99.90
13251;DHT22;6692;50.710;7.180;2022-09-20T08:12:36;13.90;99.90
13251;DHT22;6692;50.710;7.180;2022-09-20T08:14:37;14.00;99.90
13251;DHT22;6692;50.710;7.180;2022-09-20T08:16:39;14.10;99.90
13251;DHT22;6692;50.710;7.180;2022-09-20T08:18:47;14.00;99.90
13251;DHT22;6692;50.710;7.180;2022-09-20T08:20:47;14.20;99.90
13251;DHT22;6692;50.710;7.180;2022-09-20T08:22:47;14.40;99.90
13251;DHT22;6692;50.710;7.180;2022-09-20T08:24:48;14.50;99.90
13251;DHT22;6692;50.710;7.180;2022-09-20T08:26:49;14.60;99.90
13251;DHT22;6692;50.710;7.180;2022-09-20T08:28:50;14.60;99.90
13251;DHT22;6692;50.710;7.180;2022-09-20T08:30:50;14.60;99.90
13251;DHT22;6692;50.710;7.180;2022-09-20T08:32:51;14.60;99.90
13251;DHT22;6692;50.710;7.180;2022-09-20T08:34:52;14.40;99.90
13251;DHT22;6692;50.710;7.180;2022-09-20T08:36:53;14.40;99.90
13251;DHT22;6692;50.710;7.180;2022-09-20T08:38:53;14.30;99.90
13251;DHT22;6692;50.710;7.180;2022-09-20T08:40:57;14.10;99.90
13251;DHT22;6692;50.710;7.180;2022-09-20T08:42:56;14.10;99.90
13251;DHT22;6692;50.710;7.180;2022-09-20T08:44:59;14.20;99.90
13251;DHT22;6692;50.710;7.180;2022-09-20T08:49:24;14.20;99.90
13251;DHT22;6692;50.710;7.180;2022-09-20T08:51:21;14.30;99.90
13251;DHT22;6692;50.710;7.180;2022-09-20T08:53:22;14.30;99.90
13251;DHT22;6692;50.710;7.180;2022-09-20T08:55:24;14.30;99.90
13251;DHT22;6692;50.710;7.180;2022-09-20T08:57:26;14.30;99.90
13251;DHT22;6692;50.710;7.180;2022-09-20T08:59:25;14.30;99.90
13251;DHT22;6692;50.710;7.180;2022-09-20T09:01:26;14.20;99.90
13251;DHT22;6692;50.710;7.180;2022-09-20T09:03:27;14.20;99.90
13251;DHT22;6692;50.710;7.180;2022-09-20T09:05:35;14.20;99.90
13251;DHT22;6692;50.710;7.180;2022-09-20T09:07:35;14.20;99.90
13251;DHT22;6692;50.710;7.180;2022-09-20T09:09:36;14.20;99.90
13251;DHT22;6692;50.710;7.180;2022-09-20T09:11:36;14.30;99.90
13251;DHT22;6692;50.710;7.180;2022-09-20T09:13:48;14.40;99.90
13251;DHT22;6692;50.710;7.180;2022-09-20T09:15:48;14.40;99.90
13251;DHT22;6692;50.710;7.180;2022-09-20T09:17:47;14.30;99.90
13251;DHT22;6692;50.710;7.180;2022-09-20T09:19:52;14.20;99.90
13251;DHT22;6692;50.710;7.180;2022-09-20T09:21:55;14.10;99.90
13251;DHT22;6692;50.710;7.180;2022-09-20T09:23:54;14.00;99.90
13251;DHT22;6692;50.710;7.180;2022-09-20T09:25:53;14.00;99.90
13251;DHT22;6692;50.710;7.180;2022-09-20T09:27:57;14.00;99.90
13251;DHT22;6692;50.710;7.180;2022-09-20T09:29:56;14.10;99.90
13251;DHT22;6692;50.710;7.180;2022-09-20T09:31:57;14.20;99.90
13251;DHT22;6692;50.710;7.180;2022-09-20T09:33:58;14.50;99.90
13251;DHT22;6692;50.710;7.180;2022-09-20T09:36:14;14.50;99.90
13251;DHT22;6692;50.710;7.180;2022-09-20T09:38:16;14.60;99.90
13251;DHT22;6692;50.710;7.180;2022-09-20T09:40:16;14.60;99.90
13251;DHT22;6692;50.710;7.180;2022-09-20T09:42:19;14.70;99.90
13251;DHT22;6692;50.710;7.180;2022-09-20T09:44:22;14.80;99.90
13251;DHT22;6692;50.710;7.180;2022-09-20T09:46:22;14.80;99.90
13251;DHT22;6692;50.710;7.180;2022-09-20T09:48:26;14.90;99.90
13251;DHT22;6692;50.710;7.180;2022-09-20T09:50:28;14.90;99.90
13251;DHT22;6692;50.710;7.180;2022-09-20T09:52:27;15.00;99.90
13251;DHT22;6692;50.710;7.180;2022-09-20T09:54:28;15.10;99.90
13251;DHT22;6692;50.710;7.180;2022-09-20T09:56:39;15.20;99.90
13251;DHT22;6692;50.710;7.180;2022-09-20T09:59:53;15.30;99.90
13251;DHT22;6692;50.710;7.180;2022-09-20T10:01:00;15.50;99.90
13251;DHT22;6692;50.710;7.180;2022-09-20T10:03:05;15.50;99.90
13251;DHT22;6692;50.710;7.180;2022-09-20T10:05:07;15.50;99.90
13251;DHT22;6692;50.710;7.180;2022-09-20T10:07:22;15.60;99.90
13251;DHT22;6692;50.710;7.180;2022-09-20T10:09:29;15.70;99.90
13251;DHT22;6692;50.710;7.180;2022-09-20T10:11:40;15.80;99.90
13251;DHT22;6692;50.710;7.180;2022-09-20T10:14:03;15.70;99.90
13251;DHT22;6692;50.710;7.180;2022-09-20T10:20:25;15.80;99.90
13251;DHT22;6692;50.710;7.180;2022-09-20T10:22:48;15.90;99.90
13251;DHT22;6692;50.710;7.180;2022-09-20T10:25:02;16.00;99.90
13251;DHT22;6692;50.710;7.180;2022-09-20T10:29:39;16.10;99.90
13251;DHT22;6692;50.710;7.180;2022-09-20T10:31:52;16.10;99.90
13251;DHT22;6692;50.710;7.180;2022-09-20T10:34:05;16.10;99.90
13251;DHT22;6692;50.710;7.180;2022-09-20T10:36:08;16.00;99.90
13251;DHT22;6692;50.710;7.180;2022-09-20T10:40:41;15.90;99.90
13251;DHT22;6692;50.710;7.180;2022-09-20T10:42:47;15.80;99.90
13251;DHT22;6692;50.710;7.180;2022-09-20T10:47:12;15.60;99.90
13251;DHT22;6692;50.710;7.180;2022-09-20T10:49:17;15.50;99.90
13251;DHT22;6692;50.710;7.180;2022-09-20T10:51:23;15.40;99.90
13251;DHT22;6692;50.710;7.180;2022-09-20T10:53:57;15.40;99.90
13251;DHT22;6692;50.710;7.180;2022-09-20T10:55:40;15.40;99.90
13251;DHT22;6692;50.710;7.180;2022-09-20T10:58:01;15.40;99.90
13251;DHT22;6692;50.710;7.180;2022-09-20T11:00:03;15.40;99.90
13251;DHT22;6692;50.710;7.180;2022-09-20T11:06:40;15.40;99.90
13251;DHT22;6692;50.710;7.180;2022-09-20T11:08:37;15.40;99.90
13251;DHT22;6692;50.710;7.180;2022-09-20T11:10:41;15.30;99.90
13251;DHT22;6692;50.710;7.180;2022-09-20T11:12:46;15.30;99.90
13251;DHT22;6692;50.710;7.180;2022-09-20T11:14:50;15.30;99.90
13251;DHT22;6692;50.710;7.180;2022-09-20T11:19:27;15.40;99.90
13251;DHT22;6692;50.710;7.180;2022-09-20T11:21:29;15.40;99.90
13251;DHT22;6692;50.710;7.180;2022-09-20T11:23:46;15.40;99.90
13251;DHT22;6692;50.710;7.180;2022-09-20T11:25:45;15.40;99.90
13251;DHT22;6692;50.710;7.180;2022-09-20T11:27:52;15.50;99.90
13251;DHT22;6692;50.710;7.180;2022-09-20T11:29:57;15.40;99.90
13251;DHT22;6692;50.710;7.180;2022-09-20T11:31:57;15.40;99.90
13251;DHT22;6692;50.710;7.180;2022-09-20T11:33:58;15.40;99.90
13251;DHT22;6692;50.710;7.180;2022-09-20T11:35:57;15.50;99.90
13251;DHT22;6692;50.710;7.180;2022-09-20T11:38:07;15.60;99.90
13251;DHT22;6692;50.710;7.180;2022-09-20T11:40:14;15.80;99.90
13251;DHT22;6692;50.710;7.180;2022-09-20T11:42:13;15.90;99.90
13251;DHT22;6692;50.710;7.180;2022-09-20T11:44:14;16.00;99.90
13251;DHT22;6692;50.710;7.180;2022-09-20T11:46:18;16.10;99.90
13251;DHT22;6692;50.710;7.180;2022-09-20T11:48:17;16.30;99.90
13251;DHT22;6692;50.710;7.180;2022-09-20T11:52:32;16.50;99.90
13251;DHT22;6692;50.710;7.180;2022-09-20T11:56:49;16.70;99.90
13251;DHT22;6692;50.710;7.180;2022-09-20T11:58:49;16.60;99.90
13251;DHT22;6692;50.710;7.180;2022-09-20T12:00:51;16.70;99.90
13251;DHT22;6692;50.710;7.180;2022-09-20T12:02:51;16.70;99.90
13251;DHT22;6692;50.710;7.180;2022-09-20T12:04:51;16.80;99.90
13251;DHT22;6692;50.710;7.180;2022-09-20T12:06:57;16.90;99.90
13251;DHT22;6692;50.710;7.180;2022-09-20T12:08:56;16.90;99.90
13251;DHT22;6692;50.710;7.180;2022-09-20T12:11:08;16.90;99.90
13251;DHT22;6692;50.710;7.180;2022-09-20T12:13:18;16.80;99.90
13251;DHT22;6692;50.710;7.180;2022-09-20T12:15:35;16.60;99.90
13251;DHT22;6692;50.710;7.180;2022-09-20T12:20:00;16.10;99.90
13251;DHT22;6692;50.710;7.180;2022-09-20T12:22:25;15.60;99.90
13251;DHT22;6692;50.710;7.180;2022-09-20T12:24:18;15.40;99.90
13251;DHT22;6692;50.710;7.180;2022-09-20T12:26:35;15.40;99.90
13251;DHT22;6692;50.710;7.180;2022-09-20T12:28:40;15.20;99.90
13251;DHT22;6692;50.710;7.180;2022-09-20T12:30:40;15.10;99.90
13251;DHT22;6692;50.710;7.180;2022-09-20T12:32:43;15.00;99.90
13251;DHT22;6692;50.710;7.180;2022-09-20T12:34:42;15.00;99.90
13251;DHT22;6692;50.710;7.180;2022-09-20T12:36:44;15.00;99.90
13251;DHT22;6692;50.710;7.180;2022-09-20T12:38:45;15.00;99.90
13251;DHT22;6692;50.710;7.180;2022-09-20T12:40:56;15.10;99.90
13251;DHT22;6692;50.710;7.180;2022-09-20T12:42:54;15.10;99.90
13251;DHT22;6692;50.710;7.180;2022-09-20T12:44:59;15.00;99.90
13251;DHT22;6692;50.710;7.180;2022-09-20T12:46:59;15.10;99.90
13251;DHT22;6692;50.710;7.180;2022-09-20T12:51:31;15.10;99.90
13251;DHT22;6692;50.710;7.180;2022-09-20T12:53:37;15.10;99.90
13251;DHT22;6692;50.710;7.180;2022-09-20T12:58:05;15.20;99.90
13251;DHT22;6692;50.710;7.180;2022-09-20T13:00:05;15.30;99.90
13251;DHT22;6692;50.710;7.180;2022-09-20T13:05:02;15.40;99.90
13251;DHT22;6692;50.710;7.180;2022-09-20T13:06:46;15.40;99.90
13251;DHT22;6692;50.710;7.180;2022-09-20T13:09:04;15.40;99.90
13251;DHT22;6692;50.710;7.180;2022-09-20T13:11:16;15.50;99.90
13251;DHT22;6692;50.710;7.180;2022-09-20T13:13:34;15.40;99.90
13251;DHT22;6692;50.710;7.180;2022-09-20T13:15:34;15.30;99.90
13251;DHT22;6692;50.710;7.180;2022-09-20T13:17:35;15.30;99.90
13251;DHT22;6692;50.710;7.180;2022-09-20T13:19:36;15.30;99.90
13251;DHT22;6692;50.710;7.180;2022-09-20T13:21:37;15.30;99.90
13251;DHT22;6692;50.710;7.180;2022-09-20T13:23:43;15.30;99.90
13251;DHT22;6692;50.710;7.180;2022-09-20T13:25:42;15.30;99.90
13251;DHT22;6692;50.710;7.180;2022-09-20T13:27:54;15.40;99.90
13251;DHT22;6692;50.710;7.180;2022-09-20T13:29:51;15.40;99.90
13251;DHT22;6692;50.710;7.180;2022-09-20T13:31:51;15.50;99.90
13251;DHT22;6692;50.710;7.180;2022-09-20T13:33:52;15.60;99.90
13251;DHT22;6692;50.710;7.180;2022-09-20T13:35:53;15.70;99.90
13251;DHT22;6692;50.710;7.180;2022-09-20T13:37:56;15.90;99.90
13251;DHT22;6692;50.710;7.180;2022-09-20T13:39:56;16.00;99.90
13251;DHT22;6692;50.710;7.180;2022-09-20T13:41:58;16.00;99.90
13251;DHT22;6692;50.710;7.180;2022-09-20T13:43:58;16.20;99.90
13251;DHT22;6692;50.710;7.180;2022-09-20T13:46:05;16.50;99.90
13251;DHT22;6692;50.710;7.180;2022-09-20T13:48:00;16.70;99.90
13251;DHT22;6692;50.710;7.180;2022-09-20T13:50:06;17.10;99.90
13251;DHT22;6692;50.710;7.180;2022-09-20T13:52:11;17.80;99.90
13251;DHT22;6692;50.710;7.180;2022-09-20T13:56:21;19.00;98.70
13251;DHT22;6692;50.710;7.180;2022-09-20T13:58:28;19.40;97.00
13251;DHT22;6692;50.710;7.180;2022-09-20T14:00:28;19.70;95.50
13251;DHT22;6692;50.710;7.180;2022-09-20T14:02:29;19.80;95.20
13251;DHT22;6692;50.710;7.180;2022-09-20T14:04:29;19.30;94.70
13251;DHT22;6692;50.710;7.180;2022-09-20T14:06:30;19.10;96.30
13251;DHT22;6692;50.710;7.180;2022-09-20T14:08:32;18.80;95.50
13251;DHT22;6692;50.710;7.180;2022-09-20T14:10:35;18.40;96.50
13251;DHT22;6692;50.710;7.180;2022-09-20T14:12:35;18.00;96.40
13251;DHT22;6692;50.710;7.180;2022-09-20T14:14:35;17.70;98.40
13251;DHT22;6692;50.710;7.180;2022-09-20T14:16:38;17.30;99.20
13251;DHT22;6692;50.710;7.180;2022-09-20T14:18:39;16.80;99.60
13251;DHT22;6692;50.710;7.180;2022-09-20T14:20:42;16.80;99.60
13251;DHT22;6692;50.710;7.180;2022-09-20T14:22:42;16.50;99.90
13251;DHT22;6692;50.710;7.180;2022-09-20T14:24:55;16.30;99.90
13251;DHT22;6692;50.710;7.180;2022-09-20T14:26:58;16.30;99.90
13251;DHT22;6692;50.710;7.180;2022-09-20T14:28:45;16.20;99.90
13251;DHT22;6692;50.710;7.180;2022-09-20T14:30:46;16.10;99.90
13251;DHT22;6692;50.710;7.180;2022-09-20T14:32:50;16.00;99.90
13251;DHT22;6692;50.710;7.180;2022-09-20T14:34:57;15.80;99.90
13251;DHT22;6692;50.710;7.180;2022-09-20T14:36:58;15.80;99.90
13251;DHT22;6692;50.710;7.180;2022-09-20T14:38:54;15.70;99.90
13251;DHT22;6692;50.710;7.180;2022-09-20T14:40:54;15.70;99.90
13251;DHT22;6692;50.710;7.180;2022-09-20T14:42:59;15.60;99.90
13251;DHT22;6692;50.710;7.180;2022-09-20T14:45:00;15.60;99.90
13251;DHT22;6692;50.710;7.180;2022-09-20T14:47:12;15.60;99.90
13251;DHT22;6692;50.710;7.180;2022-09-20T14:51:22;15.80;99.90
13251;DHT22;6692;50.710;7.180;2022-09-20T14:53:23;16.00;99.90
13251;DHT22;6692;50.710;7.180;2022-09-20T14:55:24;16.10;99.90